createdAt,value
2022-09-15T00:00:33.084Z,15.00
2022-09-15T00:02:59.913Z,15.00
2022-09-15T00:05:26.730Z,15.20
2022-09-15T00:07:53.517Z,15.20
2022-09-15T00:10:20.280Z,15.30
2022-09-15T00:12:46.996Z,15.50
2022-09-15T00:15:15.056Z,15.70
2022-09-15T00:17:42.923Z,15.60
2022-09-15T00:20:10.911Z,15.80
2022-09-15T00:22:37.776Z,15.70
2022-09-15T00:25:05.186Z,15.60
2022-09-15T00:27:33.554Z,15.50
2022-09-15T00:30:01.029Z,15.50
2022-09-15T00:32:29.381Z,15.50
2022-09-15T00:34:56.178Z,15.50
2022-09-15T00:37:23.119Z,15.30
2022-09-15T00:39:49.924Z,15.20
2022-09-15T00:42:18.296Z,15.00
2022-09-15T00:44:49.762Z,15.10
2022-09-15T00:47:19.750Z,15.30
2022-09-15T00:49:49.601Z,15.60
2022-09-15T00:52:39.790Z,15.80
2022-09-15T00:55:17.608Z,15.80
2022-09-15T00:58:04.092Z,15.60
2022-09-15T01:00:31.057Z,15.50
2022-09-15T01:02:59.119Z,15.70
2022-09-15T01:05:41.180Z,15.80
2022-09-15T01:08:34.231Z,15.80
2022-09-15T01:11:02.660Z,15.50
2022-09-15T01:13:32.474Z,15.50
2022-09-15T01:16:33.162Z,15.70
2022-09-15T01:19:32.347Z,15.80
2022-09-15T01:22:17.901Z,16.00
2022-09-15T01:25:07.749Z,16.00
2022-09-15T01:27:43.017Z,16.10
2022-09-15T01:30:17.365Z,16.10
2022-09-15T01:33:05.569Z,16.10
2022-09-15T01:35:57.083Z,16.20
2022-09-15T01:38:42.240Z,16.20
2022-09-15T01:41:15.607Z,16.30
2022-09-15T01:43:51.555Z,16.10
2022-09-15T01:50:15.418Z,16.10
2022-09-15T01:56:29.349Z,16.10
2022-09-15T02:03:08.431Z,16.00
2022-09-15T02:05:43.407Z,16.80
2022-09-15T02:08:30.182Z,16.20
2022-09-15T02:11:14.770Z,16.20
2022-09-15T02:13:48.758Z,16.30
2022-09-15T02:16:25.288Z,16.40
2022-09-15T02:19:16.826Z,16.40
2022-09-15T02:22:02.881Z,16.40
2022-09-15T02:24:36.085Z,16.50
2022-09-15T02:27:07.369Z,16.50
2022-09-15T02:29:36.580Z,16.50
2022-09-15T02:32:07.432Z,16.60
2022-09-15T02:34:42.011Z,16.50
2022-09-15T02:37:10.120Z,16.50
2022-09-15T02:39:42.336Z,16.50
2022-09-15T02:42:10.543Z,16.50
2022-09-15T02:44:37.559Z,16.50
2022-09-15T02:47:04.411Z,16.40
2022-09-15T02:49:31.215Z,16.40
2022-09-15T02:51:57.951Z,16.40
2022-09-15T02:54:24.709Z,17.20
2022-09-15T02:56:51.532Z,16.50
2022-09-15T02:59:18.251Z,16.50
2022-09-15T03:01:45.048Z,16.40
2022-09-15T03:04:11.979Z,16.40
2022-09-15T03:06:38.731Z,16.50
2022-09-15T03:09:07.856Z,16.60
2022-09-15T03:11:35.850Z,16.40
2022-09-15T03:14:05.836Z,16.40
2022-09-15T03:16:34.609Z,16.40
2022-09-15T03:19:02.110Z,16.40
2022-09-15T03:21:29.682Z,16.30
2022-09-15T03:23:57.843Z,16.40
2022-09-15T03:26:25.123Z,16.20
2022-09-15T03:28:51.982Z,16.20
2022-09-15T03:31:19.900Z,16.20
2022-09-15T03:33:47.879Z,16.30
2022-09-15T03:36:14.684Z,15.40
2022-09-15T03:38:41.544Z,16.30
2022-09-15T03:41:11.327Z,16.30
2022-09-15T03:43:39.001Z,16.30
2022-09-15T03:46:08.043Z,16.30
2022-09-15T03:48:36.083Z,16.40
2022-09-15T03:51:04.461Z,16.30
2022-09-15T03:53:33.256Z,16.20
2022-09-15T03:56:22.302Z,16.30
2022-09-15T03:58:49.892Z,16.30
2022-09-15T04:01:18.767Z,16.30
2022-09-15T04:03:50.635Z,16.20
2022-09-15T04:06:19.419Z,16.10
2022-09-15T04:08:46.335Z,16.10
2022-09-15T04:11:14.004Z,15.80
2022-09-15T04:13:41.957Z,15.90
2022-09-15T04:16:11.676Z,15.80
2022-09-15T04:18:38.651Z,15.10
2022-09-15T04:21:08.299Z,16.00
2022-09-15T04:23:35.470Z,16.00
2022-09-15T04:26:05.322Z,16.10
2022-09-15T04:28:34.173Z,16.20
2022-09-15T04:31:09.955Z,16.20
2022-09-15T04:33:38.629Z,16.20
2022-09-15T04:36:16.835Z,16.30
2022-09-15T04:38:44.790Z,16.30
2022-09-15T04:41:12.547Z,16.40
2022-09-15T04:43:39.398Z,16.40
2022-09-15T04:46:06.360Z,16.40
2022-09-15T04:48:33.217Z,16.40
2022-09-15T04:51:05.310Z,15.60
2022-09-15T04:53:32.632Z,16.40
2022-09-15T04:56:08.539Z,16.40
2022-09-15T04:58:39.906Z,16.50
2022-09-15T05:01:19.001Z,16.50
2022-09-15T05:03:46.699Z,16.60
2022-09-15T05:06:20.121Z,16.40
2022-09-15T05:08:51.704Z,16.20
2022-09-15T05:11:19.525Z,16.10
2022-09-15T05:13:46.960Z,15.80
2022-09-15T05:16:19.360Z,15.80
2022-09-15T05:18:47.997Z,15.70
2022-09-15T05:21:16.874Z,16.00
2022-09-15T05:23:44.560Z,15.90
2022-09-15T05:26:13.988Z,15.90
2022-09-15T05:28:40.945Z,16.00
2022-09-15T05:31:11.925Z,15.90
2022-09-15T05:33:38.796Z,15.80
2022-09-15T05:36:07.308Z,15.90
2022-09-15T05:38:34.133Z,15.80
2022-09-15T05:41:19.907Z,15.80
2022-09-15T05:43:48.245Z,16.00
2022-09-15T05:46:16.025Z,16.00
2022-09-15T05:48:43.486Z,16.10
2022-09-15T05:51:10.695Z,16.80
2022-09-15T05:53:38.563Z,16.10
2022-09-15T05:56:08.288Z,16.10
2022-09-15T05:58:35.300Z,16.20
2022-09-15T06:01:07.830Z,16.30
2022-09-15T06:03:35.439Z,16.40
2022-09-15T06:06:03.925Z,16.50
2022-09-15T06:08:43.626Z,16.50
2022-09-15T06:11:16.625Z,16.50
2022-09-15T06:13:44.232Z,16.60
2022-09-15T06:16:13.811Z,16.60
2022-09-15T06:18:41.561Z,16.60
2022-09-15T06:21:20.325Z,16.60
2022-09-15T06:23:52.087Z,16.70
2022-09-15T06:26:19.771Z,16.70
2022-09-15T06:28:54.342Z,16.70
2022-09-15T06:31:21.570Z,16.70
2022-09-15T06:33:53.336Z,16.70
2022-09-15T06:36:21.855Z,16.70
2022-09-15T06:38:48.881Z,16.40
2022-09-15T06:41:16.156Z,16.30
2022-09-15T06:43:43.529Z,16.20
2022-09-15T06:46:22.275Z,16.30
2022-09-15T06:48:51.194Z,16.20
2022-09-15T06:51:20.981Z,16.20
2022-09-15T06:53:47.832Z,16.10
2022-09-15T06:56:20.540Z,15.90
2022-09-15T06:58:49.307Z,16.00
2022-09-15T07:01:28.550Z,16.10
2022-09-15T07:03:56.681Z,16.30
2022-09-15T07:06:23.524Z,16.20
2022-09-15T07:08:51.103Z,16.20
2022-09-15T07:11:18.321Z,16.20
2022-09-15T07:13:45.063Z,16.10
2022-09-15T07:16:12.968Z,16.10
2022-09-15T07:22:27.199Z,16.30
2022-09-15T07:24:53.995Z,16.10
2022-09-15T07:27:22.455Z,16.20
2022-09-15T07:29:49.199Z,16.40
2022-09-15T07:32:15.894Z,16.50
2022-09-15T07:34:42.991Z,16.20
2022-09-15T07:37:09.756Z,16.30
2022-09-15T07:39:36.529Z,16.40
2022-09-15T07:42:04.394Z,16.40
2022-09-15T07:44:31.218Z,16.60
2022-09-15T07:46:57.967Z,16.40
2022-09-15T07:49:24.668Z,16.30
2022-09-15T07:51:51.489Z,16.50
2022-09-15T07:54:22.006Z,16.40
2022-09-15T07:56:49.822Z,16.20
2022-09-15T07:59:16.570Z,16.40
2022-09-15T08:01:43.418Z,16.70
2022-09-15T08:04:10.207Z,16.70
2022-09-15T08:06:36.987Z,16.70
2022-09-15T08:09:03.879Z,16.60
2022-09-15T08:11:30.913Z,16.60
2022-09-15T08:14:01.378Z,16.80
2022-09-15T08:16:28.460Z,17.10
2022-09-15T08:18:55.491Z,16.90
2022-09-15T08:21:23.546Z,16.80
2022-09-15T08:23:52.566Z,16.80
2022-09-15T08:26:19.385Z,16.60
2022-09-15T08:28:46.413Z,16.90
2022-09-15T08:31:13.965Z,17.30
2022-09-15T08:33:45.205Z,17.50
2022-09-15T08:36:13.225Z,17.70
2022-09-15T08:38:40.848Z,17.70
2022-09-15T08:41:37.132Z,18.00
2022-09-15T08:44:28.353Z,18.10
2022-09-15T08:47:20.657Z,17.90
2022-09-15T08:50:06.053Z,18.40
2022-09-15T08:52:50.696Z,18.40
2022-09-15T08:55:41.802Z,17.90
2022-09-15T08:58:18.746Z,17.80
2022-09-15T09:00:52.453Z,17.90
2022-09-15T09:03:50.067Z,18.10
2022-09-15T09:06:46.205Z,17.70
2022-09-15T09:09:23.942Z,17.50
2022-09-15T09:12:05.788Z,17.70
2022-09-15T09:15:11.708Z,17.50
2022-09-15T09:18:03.577Z,17.70
2022-09-15T09:20:49.668Z,17.70
2022-09-15T09:23:20.769Z,17.80
2022-09-15T09:25:49.777Z,18.10
2022-09-15T09:28:22.390Z,17.40
2022-09-15T09:30:49.605Z,18.40
2022-09-15T09:33:29.908Z,18.50
2022-09-15T09:36:01.170Z,18.60
2022-09-15T09:38:36.413Z,18.70
2022-09-15T09:41:26.148Z,18.50
2022-09-15T09:43:55.544Z,17.90
2022-09-15T09:46:22.654Z,18.00
2022-09-15T09:48:59.794Z,18.30
2022-09-15T09:51:47.937Z,18.30
2022-09-15T09:54:16.243Z,18.10
2022-09-15T09:56:44.489Z,18.40
2022-09-15T09:59:42.218Z,18.50
2022-09-15T10:02:11.803Z,18.70
2022-09-15T10:04:40.308Z,18.80
2022-09-15T10:07:07.977Z,19.00
2022-09-15T10:09:34.872Z,18.60
2022-09-15T10:12:04.338Z,18.80
2022-09-15T10:14:41.131Z,19.00
2022-09-15T10:17:22.989Z,18.90
2022-09-15T10:19:55.316Z,19.10
2022-09-15T10:22:39.174Z,18.70
2022-09-15T10:25:21.252Z,18.70
2022-09-15T10:28:14.553Z,18.60
2022-09-15T10:31:01.067Z,18.40
2022-09-15T10:37:20.822Z,17.90
2022-09-15T10:39:54.384Z,18.50
2022-09-15T10:42:38.149Z,18.50
2022-09-15T10:45:23.510Z,18.50
2022-09-15T10:48:07.129Z,18.80
2022-09-15T10:50:48.430Z,19.00
2022-09-15T10:53:57.206Z,19.40
2022-09-15T11:00:19.391Z,19.50
2022-09-15T11:06:35.076Z,20.20
2022-09-15T11:09:09.686Z,19.40
2022-09-15T11:11:58.510Z,19.20
2022-09-15T11:14:28.274Z,19.50
2022-09-15T11:17:13.380Z,19.20
2022-09-15T11:19:56.258Z,18.20
2022-09-15T11:22:30.578Z,19.60
2022-09-15T11:25:13.887Z,19.40
2022-09-15T11:27:46.673Z,19.20
2022-09-15T11:30:20.092Z,19.00
2022-09-15T11:33:03.442Z,19.40
2022-09-15T11:35:46.369Z,19.90
2022-09-15T11:38:33.595Z,20.20
2022-09-15T11:41:26.795Z,20.10
2022-09-15T11:44:16.131Z,19.60
2022-09-15T11:47:21.436Z,19.60
2022-09-15T11:50:14.642Z,20.10
2022-09-15T11:52:57.501Z,19.90
2022-09-15T11:55:43.314Z,20.00
2022-09-15T11:58:40.227Z,20.20
2022-09-15T12:01:38.664Z,20.10
2022-09-15T12:04:21.990Z,19.30
2022-09-15T12:06:55.379Z,19.60
2022-09-15T12:09:22.881Z,19.80
2022-09-15T12:12:01.273Z,20.50
2022-09-15T12:14:48.835Z,21.20
2022-09-15T12:17:35.671Z,20.70
2022-09-15T12:20:12.725Z,21.30
2022-09-15T12:22:39.995Z,21.20
2022-09-15T12:25:22.600Z,21.50
2022-09-15T12:28:23.162Z,21.30
2022-09-15T12:31:11.065Z,20.40
2022-09-15T12:33:44.930Z,20.40
2022-09-15T12:36:38.349Z,20.40
2022-09-15T12:39:30.182Z,19.70
2022-09-15T12:42:00.395Z,19.40
2022-09-15T12:44:32.744Z,18.80
2022-09-15T12:47:01.003Z,19.00
2022-09-15T12:49:35.398Z,19.20
2022-09-15T12:52:07.360Z,19.10
2022-09-15T12:54:38.704Z,18.60
2022-09-15T12:57:08.279Z,18.70
2022-09-15T12:59:35.107Z,18.90
2022-09-15T13:02:02.620Z,19.10
2022-09-15T13:04:41.544Z,18.80
2022-09-15T13:07:18.628Z,18.50
2022-09-15T13:10:00.211Z,18.60
2022-09-15T13:12:35.767Z,18.70
2022-09-15T13:15:07.377Z,18.80
2022-09-15T13:17:35.093Z,18.70
2022-09-15T13:20:09.895Z,18.90
2022-09-15T13:22:43.910Z,18.90
2022-09-15T13:25:11.064Z,18.90
2022-09-15T13:27:45.214Z,19.00
2022-09-15T13:30:21.341Z,18.90
2022-09-15T13:33:03.318Z,20.50
2022-09-15T13:35:40.388Z,19.30
2022-09-15T13:38:42.207Z,19.30
2022-09-15T13:41:26.955Z,19.50
2022-09-15T13:43:57.813Z,19.90
2022-09-15T13:46:36.826Z,19.60
2022-09-15T13:49:22.487Z,19.30
2022-09-15T13:51:59.707Z,20.30
2022-09-15T13:54:26.657Z,20.80
2022-09-15T13:56:53.761Z,21.10
2022-09-15T13:59:28.574Z,21.50
2022-09-15T14:01:56.962Z,22.20
2022-09-15T14:04:31.960Z,22.40
2022-09-15T14:07:01.507Z,22.30
2022-09-15T14:09:44.796Z,22.50
2022-09-15T14:12:14.989Z,22.40
2022-09-15T14:14:47.209Z,20.80
2022-09-15T14:17:29.448Z,20.30
2022-09-15T14:19:58.787Z,20.30
2022-09-15T14:22:34.026Z,20.10
2022-09-15T14:25:07.503Z,20.10
2022-09-15T14:27:36.564Z,19.90
2022-09-15T14:30:07.357Z,20.20
2022-09-15T14:32:43.963Z,20.40
2022-09-15T14:35:19.702Z,20.60
2022-09-15T14:37:56.471Z,20.80
2022-09-15T14:40:32.001Z,20.80
2022-09-15T14:42:58.863Z,20.50
2022-09-15T14:48:30.753Z,20.30
2022-09-15T14:51:16.538Z,20.20
2022-09-15T14:53:44.703Z,20.50
2022-09-15T14:56:25.417Z,20.40
2022-09-15T14:58:58.728Z,20.70
2022-09-15T15:01:34.599Z,20.70
2022-09-15T15:04:10.328Z,20.70
2022-09-15T15:06:43.430Z,21.20
2022-09-15T15:09:22.248Z,21.60
2022-09-15T15:11:58.680Z,21.80
2022-09-15T15:14:34.624Z,22.10
2022-09-15T15:17:08.253Z,22.80
2022-09-15T15:19:38.643Z,22.90
2022-09-15T15:22:15.207Z,22.30
2022-09-15T15:24:45.028Z,22.30
2022-09-15T15:27:40.546Z,22.30
2022-09-15T15:30:29.592Z,22.20
2022-09-15T15:32:58.237Z,21.60
2022-09-15T15:35:26.044Z,21.50
2022-09-15T15:38:17.680Z,21.60
2022-09-15T15:40:45.834Z,22.80
2022-09-15T15:43:23.874Z,22.00
2022-09-15T15:45:58.260Z,21.00
2022-09-15T15:48:26.563Z,19.90
2022-09-15T15:50:53.866Z,20.20
2022-09-15T15:53:20.653Z,20.30
2022-09-15T15:55:47.524Z,20.30
2022-09-15T15:58:15.746Z,20.40
2022-09-15T16:00:53.888Z,20.10
2022-09-15T16:03:22.530Z,20.40
2022-09-15T16:05:59.183Z,20.50
2022-09-15T16:08:38.037Z,20.70
2022-09-15T16:11:07.660Z,20.50
2022-09-15T16:13:34.542Z,20.10
2022-09-15T16:16:02.434Z,20.00
2022-09-15T16:18:29.585Z,19.60
2022-09-15T16:20:56.407Z,19.80
2022-09-15T16:23:23.629Z,19.70
2022-09-15T16:26:00.140Z,19.80
2022-09-15T16:28:27.045Z,19.70
2022-09-15T16:30:53.812Z,19.40
2022-09-15T16:33:21.137Z,19.30
2022-09-15T16:35:55.178Z,19.90
2022-09-15T16:38:25.484Z,20.10
2022-09-15T16:40:52.331Z,19.90
2022-09-15T16:43:22.565Z,19.60
2022-09-15T16:45:50.701Z,19.10
2022-09-15T16:48:17.844Z,19.10
2022-09-15T16:50:56.077Z,19.10
2022-09-15T16:53:33.317Z,18.90
2022-09-15T16:56:00.023Z,19.10
2022-09-15T16:58:27.902Z,19.40
2022-09-15T17:00:54.737Z,19.20
2022-09-15T17:03:24.000Z,19.10
2022-09-15T17:05:55.912Z,19.10
2022-09-15T17:08:25.976Z,19.20
2022-09-15T17:10:55.643Z,18.80
2022-09-15T17:13:26.406Z,18.70
2022-09-15T17:15:56.903Z,18.60
2022-09-15T17:18:23.687Z,18.80
2022-09-15T17:20:50.984Z,18.70
2022-09-15T17:23:19.318Z,18.40
2022-09-15T17:25:52.553Z,18.40
2022-09-15T17:28:22.452Z,18.60
2022-09-15T17:30:56.859Z,18.60
2022-09-15T17:33:24.418Z,18.40
2022-09-15T17:35:52.836Z,18.30
2022-09-15T17:38:21.637Z,18.10
2022-09-15T17:40:49.819Z,18.00
2022-09-15T17:43:19.926Z,18.10
2022-09-15T17:45:47.859Z,17.90
2022-09-15T17:48:14.714Z,17.90
2022-09-15T17:50:41.916Z,17.90
2022-09-15T17:53:13.897Z,17.80
2022-09-15T17:55:41.063Z,17.70
2022-09-15T17:58:08.040Z,17.70
2022-09-15T18:00:37.785Z,17.50
2022-09-15T18:03:29.215Z,17.30
2022-09-15T18:05:58.501Z,17.50
2022-09-15T18:08:26.444Z,17.50
2022-09-15T18:10:53.568Z,17.70
2022-09-15T18:13:26.879Z,17.80
2022-09-15T18:15:54.556Z,17.70
2022-09-15T18:18:24.282Z,17.80
2022-09-15T18:20:53.065Z,17.80
2022-09-15T18:23:22.114Z,17.80
2022-09-15T18:25:49.871Z,18.00
2022-09-15T18:28:17.617Z,18.10
2022-09-15T18:30:46.786Z,18.00
2022-09-15T18:33:24.348Z,18.00
2022-09-15T18:35:54.417Z,18.10
2022-09-15T18:38:21.810Z,18.20
2022-09-15T18:40:53.260Z,18.30
2022-09-15T18:43:21.739Z,18.50
2022-09-15T18:45:49.672Z,18.80
2022-09-15T18:48:18.583Z,18.60
2022-09-15T18:50:46.499Z,18.60
2022-09-15T18:53:15.045Z,20.00
2022-09-15T18:55:42.254Z,18.50
2022-09-15T18:58:11.220Z,18.10
2022-09-15T19:00:38.512Z,18.00
2022-09-15T19:03:09.464Z,17.90
2022-09-15T19:05:37.967Z,18.00
2022-09-15T19:08:12.364Z,18.20
2022-09-15T19:10:49.167Z,18.20
2022-09-15T19:13:16.037Z,18.30
2022-09-15T19:15:44.328Z,18.40
2022-09-15T19:18:11.432Z,18.40
2022-09-15T19:20:38.641Z,20.00
2022-09-15T19:23:05.782Z,18.20
2022-09-15T19:25:34.900Z,18.20
2022-09-15T19:28:03.795Z,18.10
2022-09-15T19:30:30.990Z,18.10
2022-09-15T19:32:58.139Z,18.20
2022-09-15T19:35:25.373Z,18.30
2022-09-15T19:37:52.470Z,18.10
2022-09-15T19:40:20.010Z,18.10
2022-09-15T19:42:47.066Z,18.10
2022-09-15T19:45:14.218Z,18.10
2022-09-15T19:47:41.464Z,17.80
2022-09-15T19:50:11.720Z,17.70
2022-09-15T19:52:38.895Z,17.80
2022-09-15T19:55:09.763Z,17.90
2022-09-15T19:57:42.673Z,17.90
2022-09-15T20:00:12.038Z,17.90
2022-09-15T20:02:39.483Z,18.10
2022-09-15T20:05:07.728Z,18.10
2022-09-15T20:07:34.760Z,18.10
2022-09-15T20:10:01.591Z,18.10
2022-09-15T20:12:28.595Z,18.10
2022-09-15T20:14:55.357Z,18.10
2022-09-15T20:17:22.244Z,17.80
2022-09-15T20:19:49.094Z,17.70
2022-09-15T20:22:16.017Z,17.70
2022-09-15T20:24:43.076Z,17.80
2022-09-15T20:27:09.883Z,17.70
2022-09-15T20:29:36.935Z,17.80
2022-09-15T20:32:03.868Z,17.90
2022-09-15T20:34:31.029Z,17.80
2022-09-15T20:36:58.021Z,17.40
2022-09-15T20:39:25.076Z,17.50
2022-09-15T20:41:51.964Z,17.50
2022-09-15T20:44:18.855Z,17.40
2022-09-15T20:46:45.899Z,17.30
2022-09-15T20:49:13.018Z,17.40
2022-09-15T20:51:40.033Z,17.00
2022-09-15T20:54:06.945Z,17.00
2022-09-15T20:56:35.446Z,16.70
2022-09-15T20:59:03.986Z,16.70
2022-09-15T21:01:36.878Z,17.00
2022-09-15T21:04:05.158Z,17.10
2022-09-15T21:06:32.558Z,17.00
2022-09-15T21:08:59.654Z,16.80
2022-09-15T21:11:28.052Z,16.70
2022-09-15T21:13:55.823Z,16.50
2022-09-15T21:16:25.020Z,16.70
2022-09-15T21:18:52.271Z,16.70
2022-09-15T21:21:21.558Z,16.50
2022-09-15T21:27:35.861Z,16.60
2022-09-15T21:30:03.116Z,16.10
2022-09-15T21:32:32.276Z,16.10
2022-09-15T21:35:00.139Z,15.90
2022-09-15T21:37:27.888Z,15.90
2022-09-15T21:39:54.831Z,15.90
2022-09-15T21:42:22.547Z,15.50
2022-09-15T21:44:49.468Z,15.60
2022-09-15T21:47:16.253Z,15.40
2022-09-15T21:49:43.122Z,15.50
2022-09-15T21:52:10.626Z,15.20
2022-09-15T21:54:38.543Z,15.40
2022-09-15T21:57:06.176Z,15.40
2022-09-15T21:59:32.940Z,15.40
2022-09-15T22:02:00.160Z,15.30
2022-09-15T22:04:27.599Z,15.40
2022-09-15T22:06:54.518Z,15.50
2022-09-15T22:09:21.465Z,15.50
2022-09-15T22:11:49.184Z,15.40
2022-09-15T22:14:16.238Z,15.50
2022-09-15T22:16:44.148Z,15.60
2022-09-15T22:19:11.952Z,15.70
2022-09-15T22:21:41.788Z,15.30
2022-09-15T22:24:13.557Z,15.20
2022-09-15T22:26:42.808Z,15.00
2022-09-15T22:29:09.951Z,14.80
2022-09-15T22:31:37.627Z,14.90
2022-09-15T22:34:04.969Z,16.30
2022-09-15T22:36:32.677Z,15.00
2022-09-15T22:39:04.540Z,15.00
2022-09-15T22:41:39.420Z,14.80
2022-09-15T22:44:07.598Z,15.80
2022-09-15T22:46:35.227Z,14.70
2022-09-15T22:49:02.215Z,14.90
2022-09-15T22:51:29.390Z,14.90
2022-09-15T22:53:57.377Z,14.70
2022-09-15T22:56:26.150Z,14.80
2022-09-15T22:58:53.854Z,14.90
2022-09-15T23:01:23.237Z,14.80
2022-09-15T23:03:52.307Z,14.60
2022-09-15T23:06:19.999Z,14.50
2022-09-15T23:08:54.652Z,14.50
2022-09-15T23:11:22.042Z,14.50
2022-09-15T23:13:49.211Z,14.40
2022-09-15T23:16:17.253Z,14.40
2022-09-15T23:18:44.212Z,14.30
2022-09-15T23:21:12.487Z,14.30
2022-09-15T23:23:41.267Z,14.30
2022-09-15T23:26:10.442Z,14.50
2022-09-15T23:28:39.147Z,14.50
2022-09-15T23:31:06.932Z,14.30
2022-09-15T23:33:33.956Z,14.10
2022-09-15T23:36:02.970Z,14.10
2022-09-15T23:38:30.481Z,14.00
2022-09-15T23:40:57.327Z,13.90
2022-09-15T23:43:24.294Z,14.00
2022-09-15T23:45:51.279Z,14.10
2022-09-15T23:48:18.197Z,13.80
2022-09-15T23:50:45.300Z,14.00
2022-09-15T23:53:12.803Z,14.10
2022-09-15T23:55:39.561Z,14.00
2022-09-15T23:58:06.439Z,14.20
